sensor_id;sensor_type;location;lat;lon;timestamp;P1;durP1;ratioP1;P2;durP2;ratioP2
40951;SDS011;26682;51.660;19.338;2023-03-09T00:00:17;30.55;;;19.13;;
40951;SDS011;26682;51.660;19.338;2023-03-09T00:03:23;32.28;;;19.13;;
40951;SDS011;26682;51.660;19.338;2023-03-09T00:06:06;30.38;;;19.30;;
40951;SDS011;26682;51.660;19.338;2023-03-09T00:08:48;27.80;;;18.60;;
40951;SDS011;26682;51.660;19.338;2023-03-09T00:11:31;32.00;;;20.45;;
40951;SDS011;26682;51.660;19.338;2023-03-09T00:14:14;33.00;;;20.83;;
40951;SDS011;26682;51.660;19.338;2023-03-09T00:16:58;30.27;;;21.27;;
40951;SDS011;26682;51.660;19.338;2023-03-09T00:19:40;28.58;;;19.10;;
40951;SDS011;26682;51.660;19.338;2023-03-09T00:22:23;30.80;;;19.33;;
40951;SDS011;26682;51.660;19.338;2023-03-09T00:25:05;25.27;;;16.08;;
40951;SDS011;26682;51.660;19.338;2023-03-09T00:27:49;22.98;;;15.10;;
40951;SDS011;26682;51.660;19.338;2023-03-09T00:30:32;22.02;;;14.25;;
40951;SDS011;26682;51.660;19.338;2023-03-09T00:33:15;26.73;;;15.77;;
40951;SDS011;26682;51.660;19.338;2023-03-09T00:35:57;24.38;;;15.27;;
40951;SDS011;26682;51.660;19.338;2023-03-09T00:38:42;26.80;;;15.38;;
40951;SDS011;26682;51.660;19.338;2023-03-09T00:41:26;23.83;;;15.75;;
40951;SDS011;26682;51.660;19.338;2023-03-09T00:44:10;19.05;;;14.13;;
40951;SDS011;26682;51.660;19.338;2023-03-09T00:46:54;18.52;;;13.02;;
40951;SDS011;26682;51.660;19.338;2023-03-09T00:49:36;16.10;;;11.48;;
40951;SDS011;26682;51.660;19.338;2023-03-09T00:52:18;17.65;;;12.50;;
40951;SDS011;26682;51.660;19.338;2023-03-09T00:55:01;15.90;;;11.40;;
40951;SDS011;26682;51.660;19.338;2023-03-09T00:57:44;16.13;;;12.13;;
40951;SDS011;26682;51.660;19.338;2023-03-09T01:00:26;17.85;;;12.43;;
40951;SDS011;26682;51.660;19.338;2023-03-09T01:03:09;16.80;;;11.75;;
40951;SDS011;26682;51.660;19.338;2023-03-09T01:05:52;16.65;;;12.50;;
40951;SDS011;26682;51.660;19.338;2023-03-09T01:08:37;17.45;;;12.30;;
40951;SDS011;26682;51.660;19.338;2023-03-09T01:11:19;16.88;;;13.10;;
40951;SDS011;26682;51.660;19.338;2023-03-09T01:14:04;19.65;;;13.18;;
40951;SDS011;26682;51.660;19.338;2023-03-09T01:16:47;16.92;;;12.18;;
40951;SDS011;26682;51.660;19.338;2023-03-09T01:19:29;15.55;;;11.73;;
40951;SDS011;26682;51.660;19.338;2023-03-09T01:22:15;20.03;;;12.87;;
40951;SDS011;26682;51.660;19.338;2023-03-09T01:24:57;17.17;;;12.20;;
40951;SDS011;26682;51.660;19.338;2023-03-09T01:27:40;17.88;;;12.50;;
40951;SDS011;26682;51.660;19.338;2023-03-09T01:30:22;16.77;;;11.82;;
40951;SDS011;26682;51.660;19.338;2023-03-09T01:33:05;18.13;;;11.40;;
40951;SDS011;26682;51.660;19.338;2023-03-09T01:35:47;15.50;;;10.98;;
40951;SDS011;26682;51.660;19.338;2023-03-09T01:38:30;15.32;;;11.07;;
40951;SDS011;26682;51.660;19.338;2023-03-09T01:41:13;14.18;;;10.38;;
40951;SDS011;26682;51.660;19.338;2023-03-09T01:43:57;16.20;;;12.05;;
40951;SDS011;26682;51.660;19.338;2023-03-09T01:49:31;14.02;;;10.60;;
40951;SDS011;26682;51.660;19.338;2023-03-09T01:52:30;16.23;;;11.88;;
40951;SDS011;26682;51.660;19.338;2023-03-09T01:55:18;17.60;;;11.45;;
40951;SDS011;26682;51.660;19.338;2023-03-09T01:58:08;19.10;;;12.13;;
40951;SDS011;26682;51.660;19.338;2023-03-09T02:00:57;18.80;;;12.98;;
40951;SDS011;26682;51.660;19.338;2023-03-09T02:03:40;15.43;;;11.45;;
40951;SDS011;26682;51.660;19.338;2023-03-09T02:06:27;20.27;;;13.07;;
40951;SDS011;26682;51.660;19.338;2023-03-09T02:09:14;16.08;;;12.05;;
40951;SDS011;26682;51.660;19.338;2023-03-09T02:12:22;15.77;;;11.07;;
40951;SDS011;26682;51.660;19.338;2023-03-09T02:15:06;17.15;;;12.30;;
40951;SDS011;26682;51.660;19.338;2023-03-09T02:17:49;20.52;;;13.00;;
40951;SDS011;26682;51.660;19.338;2023-03-09T02:20:37;15.80;;;11.82;;
40951;SDS011;26682;51.660;19.338;2023-03-09T02:26:50;15.63;;;10.77;;
40951;SDS011;26682;51.660;19.338;2023-03-09T02:29:38;14.60;;;10.60;;
40951;SDS011;26682;51.660;19.338;2023-03-09T02:32:21;19.98;;;12.38;;
40951;SDS011;26682;51.660;19.338;2023-03-09T02:35:04;15.82;;;11.30;;
40951;SDS011;26682;51.660;19.338;2023-03-09T02:37:54;16.48;;;11.38;;
40951;SDS011;26682;51.660;19.338;2023-03-09T02:40:37;17.30;;;11.30;;
40951;SDS011;26682;51.660;19.338;2023-03-09T02:43:25;15.07;;;10.88;;
40951;SDS011;26682;51.660;19.338;2023-03-09T02:46:12;18.35;;;12.77;;
40951;SDS011;26682;51.660;19.338;2023-03-09T02:48:55;23.42;;;13.65;;
40951;SDS011;26682;51.660;19.338;2023-03-09T02:51:38;20.80;;;13.40;;
40951;SDS011;26682;51.660;19.338;2023-03-09T02:54:20;19.45;;;12.80;;
40951;SDS011;26682;51.660;19.338;2023-03-09T02:57:02;15.38;;;10.60;;
40951;SDS011;26682;51.660;19.338;2023-03-09T02:59:45;15.82;;;10.73;;
40951;SDS011;26682;51.660;19.338;2023-03-09T03:02:27;17.42;;;11.77;;
40951;SDS011;26682;51.660;19.338;2023-03-09T03:05:11;17.15;;;11.93;;
40951;SDS011;26682;51.660;19.338;2023-03-09T03:07:56;15.70;;;10.25;;
40951;SDS011;26682;51.660;19.338;2023-03-09T03:10:39;15.65;;;10.75;;
40951;SDS011;26682;51.660;19.338;2023-03-09T03:13:24;14.82;;;10.15;;
40951;SDS011;26682;51.660;19.338;2023-03-09T03:16:06;15.18;;;11.00;;
40951;SDS011;26682;51.660;19.338;2023-03-09T03:18:50;16.15;;;11.25;;
40951;SDS011;26682;51.660;19.338;2023-03-09T03:21:33;17.00;;;11.38;;
40951;SDS011;26682;51.660;19.338;2023-03-09T03:24:17;16.90;;;11.65;;
40951;SDS011;26682;51.660;19.338;2023-03-09T03:27:00;15.88;;;10.90;;
40951;SDS011;26682;51.660;19.338;2023-03-09T03:29:43;15.88;;;10.75;;
40951;SDS011;26682;51.660;19.338;2023-03-09T03:32:28;16.55;;;10.57;;
40951;SDS011;26682;51.660;19.338;2023-03-09T03:35:10;17.63;;;11.43;;
40951;SDS011;26682;51.660;19.338;2023-03-09T03:37:56;17.23;;;11.32;;
40951;SDS011;26682;51.660;19.338;2023-03-09T03:40:41;16.33;;;11.60;;
40951;SDS011;26682;51.660;19.338;2023-03-09T03:43:24;18.27;;;12.18;;
40951;SDS011;26682;51.660;19.338;2023-03-09T03:46:08;18.67;;;11.85;;
40951;SDS011;26682;51.660;19.338;2023-03-09T03:48:51;17.48;;;12.38;;
40951;SDS011;26682;51.660;19.338;2023-03-09T03:51:36;19.88;;;13.25;;
40951;SDS011;26682;51.660;19.338;2023-03-09T03:54:19;18.00;;;12.55;;
40951;SDS011;26682;51.660;19.338;2023-03-09T03:57:02;18.75;;;12.60;;
40951;SDS011;26682;51.660;19.338;2023-03-09T03:59:46;20.77;;;13.32;;
40951;SDS011;26682;51.660;19.338;2023-03-09T04:02:31;19.15;;;12.70;;
40951;SDS011;26682;51.660;19.338;2023-03-09T04:05:13;18.35;;;12.65;;
40951;SDS011;26682;51.660;19.338;2023-03-09T04:07:59;16.20;;;10.45;;
40951;SDS011;26682;51.660;19.338;2023-03-09T04:10:42;19.10;;;13.00;;
40951;SDS011;26682;51.660;19.338;2023-03-09T04:16:11;19.42;;;12.90;;
40951;SDS011;26682;51.660;19.338;2023-03-09T04:18:54;20.73;;;14.45;;
40951;SDS011;26682;51.660;19.338;2023-03-09T04:21:38;20.25;;;14.32;;
40951;SDS011;26682;51.660;19.338;2023-03-09T04:24:22;24.33;;;15.05;;
40951;SDS011;26682;51.660;19.338;2023-03-09T04:27:04;24.30;;;15.02;;
40951;SDS011;26682;51.660;19.338;2023-03-09T04:30:00;20.20;;;14.63;;
40951;SDS011;26682;51.660;19.338;2023-03-09T04:35:31;21.95;;;14.27;;
40951;SDS011;26682;51.660;19.338;2023-03-09T04:38:17;22.38;;;13.82;;
40951;SDS011;26682;51.660;19.338;2023-03-09T04:41:02;21.50;;;14.20;;
40951;SDS011;26682;51.660;19.338;2023-03-09T04:43:45;20.98;;;14.40;;
40951;SDS011;26682;51.660;19.338;2023-03-09T04:46:28;22.60;;;14.70;;
40951;SDS011;26682;51.660;19.338;2023-03-09T04:49:16;23.15;;;15.20;;
40951;SDS011;26682;51.660;19.338;2023-03-09T04:51:58;22.27;;;14.35;;
40951;SDS011;26682;51.660;19.338;2023-03-09T04:54:41;25.35;;;16.00;;
40951;SDS011;26682;51.660;19.338;2023-03-09T04:57:24;24.60;;;16.73;;
40951;SDS011;26682;51.660;19.338;2023-03-09T05:00:08;25.67;;;16.08;;
40951;SDS011;26682;51.660;19.338;2023-03-09T05:02:53;28.38;;;17.13;;
40951;SDS011;26682;51.660;19.338;2023-03-09T05:05:37;24.63;;;15.52;;
40951;SDS011;26682;51.660;19.338;2023-03-09T05:08:22;24.05;;;15.50;;
40951;SDS011;26682;51.660;19.338;2023-03-09T05:11:05;22.52;;;15.27;;
40951;SDS011;26682;51.660;19.338;2023-03-09T05:13:49;23.52;;;16.17;;
40951;SDS011;26682;51.660;19.338;2023-03-09T05:16:34;24.97;;;16.83;;
40951;SDS011;26682;51.660;19.338;2023-03-09T05:19:18;24.38;;;15.68;;
40951;SDS011;26682;51.660;19.338;2023-03-09T05:22:02;23.20;;;15.10;;
40951;SDS011;26682;51.660;19.338;2023-03-09T05:24:46;24.90;;;15.18;;
40951;SDS011;26682;51.660;19.338;2023-03-09T05:27:31;26.10;;;16.73;;
40951;SDS011;26682;51.660;19.338;2023-03-09T05:30:14;24.25;;;15.15;;
40951;SDS011;26682;51.660;19.338;2023-03-09T05:32:57;24.95;;;15.98;;
40951;SDS011;26682;51.660;19.338;2023-03-09T05:35:41;24.42;;;15.63;;
40951;SDS011;26682;51.660;19.338;2023-03-09T05:38:24;26.42;;;16.45;;
40951;SDS011;26682;51.660;19.338;2023-03-09T05:41:09;25.77;;;16.33;;
40951;SDS011;26682;51.660;19.338;2023-03-09T05:43:51;26.63;;;17.60;;
40951;SDS011;26682;51.660;19.338;2023-03-09T05:46:34;25.20;;;15.48;;
40951;SDS011;26682;51.660;19.338;2023-03-09T05:49:17;23.50;;;16.00;;
40951;SDS011;26682;51.660;19.338;2023-03-09T05:52:00;24.08;;;14.73;;
40951;SDS011;26682;51.660;19.338;2023-03-09T05:54:44;28.20;;;17.50;;
40951;SDS011;26682;51.660;19.338;2023-03-09T05:57:29;26.95;;;16.75;;
40951;SDS011;26682;51.660;19.338;2023-03-09T06:00:12;29.83;;;18.05;;
40951;SDS011;26682;51.660;19.338;2023-03-09T06:03:04;22.50;;;14.65;;
40951;SDS011;26682;51.660;19.338;2023-03-09T06:06:01;29.15;;;16.90;;
40951;SDS011;26682;51.660;19.338;2023-03-09T06:08:49;29.45;;;17.65;;
40951;SDS011;26682;51.660;19.338;2023-03-09T06:11:32;26.25;;;16.55;;
40951;SDS011;26682;51.660;19.338;2023-03-09T06:14:15;23.58;;;15.77;;
40951;SDS011;26682;51.660;19.338;2023-03-09T06:16:57;26.13;;;16.63;;
40951;SDS011;26682;51.660;19.338;2023-03-09T06:19:41;21.85;;;14.63;;
40951;SDS011;26682;51.660;19.338;2023-03-09T06:22:24;22.88;;;15.95;;
40951;SDS011;26682;51.660;19.338;2023-03-09T06:25:08;24.52;;;15.90;;
40951;SDS011;26682;51.660;19.338;2023-03-09T06:27:50;24.67;;;15.63;;
40951;SDS011;26682;51.660;19.338;2023-03-09T06:30:37;22.73;;;14.93;;
40951;SDS011;26682;51.660;19.338;2023-03-09T06:33:23;23.08;;;14.43;;
40951;SDS011;26682;51.660;19.338;2023-03-09T06:36:13;18.85;;;13.13;;
40951;SDS011;26682;51.660;19.338;2023-03-09T06:38:58;24.42;;;13.73;;
40951;SDS011;26682;51.660;19.338;2023-03-09T06:41:46;24.38;;;16.48;;
40951;SDS011;26682;51.660;19.338;2023-03-09T06:44:43;29.55;;;19.45;;
40951;SDS011;26682;51.660;19.338;2023-03-09T06:47:26;29.02;;;17.63;;
40951;SDS011;26682;51.660;19.338;2023-03-09T06:50:17;31.42;;;19.42;;
40951;SDS011;26682;51.660;19.338;2023-03-09T06:53:01;26.15;;;16.92;;
40951;SDS011;26682;51.660;19.338;2023-03-09T06:55:43;26.00;;;18.25;;
40951;SDS011;26682;51.660;19.338;2023-03-09T06:58:27;25.92;;;17.08;;
40951;SDS011;26682;51.660;19.338;2023-03-09T07:01:10;22.50;;;15.27;;
40951;SDS011;26682;51.660;19.338;2023-03-09T07:03:55;27.48;;;18.20;;
40951;SDS011;26682;51.660;19.338;2023-03-09T07:06:38;24.80;;;16.83;;
40951;SDS011;26682;51.660;19.338;2023-03-09T07:09:20;27.90;;;17.70;;
40951;SDS011;26682;51.660;19.338;2023-03-09T07:12:03;28.63;;;17.75;;
40951;SDS011;26682;51.660;19.338;2023-03-09T07:14:46;26.23;;;17.15;;
40951;SDS011;26682;51.660;19.338;2023-03-09T07:17:28;25.85;;;15.07;;
40951;SDS011;26682;51.660;19.338;2023-03-09T07:20:11;21.27;;;15.20;;
40951;SDS011;26682;51.660;19.338;2023-03-09T07:22:53;23.33;;;15.68;;
40951;SDS011;26682;51.660;19.338;2023-03-09T07:25:36;25.52;;;16.90;;
40951;SDS011;26682;51.660;19.338;2023-03-09T07:28:19;25.63;;;17.20;;
40951;SDS011;26682;51.660;19.338;2023-03-09T07:31:06;23.65;;;16.17;;
40951;SDS011;26682;51.660;19.338;2023-03-09T07:33:52;25.23;;;16.20;;
40951;SDS011;26682;51.660;19.338;2023-03-09T07:36:35;24.17;;;16.85;;
40951;SDS011;26682;51.660;19.338;2023-03-09T07:39:17;24.30;;;16.63;;
40951;SDS011;26682;51.660;19.338;2023-03-09T07:42:00;24.33;;;16.02;;
40951;SDS011;26682;51.660;19.338;2023-03-09T07:44:59;25.58;;;17.25;;
40951;SDS011;26682;51.660;19.338;2023-03-09T07:47:41;26.50;;;17.65;;
40951;SDS011;26682;51.660;19.338;2023-03-09T07:50:24;29.85;;;19.33;;
40951;SDS011;26682;51.660;19.338;2023-03-09T07:53:07;23.98;;;16.85;;
40951;SDS011;26682;51.660;19.338;2023-03-09T07:55:55;22.25;;;15.82;;
40951;SDS011;26682;51.660;19.338;2023-03-09T07:58:39;23.25;;;15.45;;
40951;SDS011;26682;51.660;19.338;2023-03-09T08:01:21;23.52;;;15.98;;
40951;SDS011;26682;51.660;19.338;2023-03-09T08:04:05;24.85;;;17.63;;
40951;SDS011;26682;51.660;19.338;2023-03-09T08:06:47;25.20;;;16.95;;
40951;SDS011;26682;51.660;19.338;2023-03-09T08:09:30;26.73;;;18.73;;
40951;SDS011;26682;51.660;19.338;2023-03-09T08:12:13;23.15;;;16.67;;
40951;SDS011;26682;51.660;19.338;2023-03-09T08:14:56;23.98;;;16.80;;
40951;SDS011;26682;51.660;19.338;2023-03-09T08:17:39;20.33;;;14.95;;
40951;SDS011;26682;51.660;19.338;2023-03-09T08:20:21;27.52;;;17.02;;
40951;SDS011;26682;51.660;19.338;2023-03-09T08:23:04;26.17;;;17.42;;
40951;SDS011;26682;51.660;19.338;2023-03-09T08:25:54;28.50;;;20.48;;
40951;SDS011;26682;51.660;19.338;2023-03-09T08:28:37;28.60;;;19.23;;
40951;SDS011;26682;51.660;19.338;2023-03-09T08:31:22;32.78;;;21.55;;
40951;SDS011;26682;51.660;19.338;2023-03-09T08:34:05;39.47;;;25.38;;
40951;SDS011;26682;51.660;19.338;2023-03-09T08:36:48;25.60;;;19.10;;
40951;SDS011;26682;51.660;19.338;2023-03-09T08:39:31;24.33;;;16.48;;
40951;SDS011;26682;51.660;19.338;2023-03-09T08:42:14;24.42;;;16.45;;
40951;SDS011;26682;51.660;19.338;2023-03-09T08:44:57;22.92;;;15.52;;
40951;SDS011;26682;51.660;19.338;2023-03-09T08:47:40;23.80;;;16.05;;
40951;SDS011;26682;51.660;19.338;2023-03-09T08:50:22;24.95;;;15.57;;
40951;SDS011;26682;51.660;19.338;2023-03-09T08:53:05;28.67;;;17.45;;
40951;SDS011;26682;51.660;19.338;2023-03-09T08:55:47;29.02;;;18.20;;
40951;SDS011;26682;51.660;19.338;2023-03-09T08:58:30;33.70;;;20.20;;
40951;SDS011;26682;51.660;19.338;2023-03-09T09:01:12;23.83;;;17.25;;
40951;SDS011;26682;51.660;19.338;2023-03-09T09:03:55;25.20;;;16.00;;
40951;SDS011;26682;51.660;19.338;2023-03-09T09:06:37;22.13;;;17.20;;
40951;SDS011;26682;51.660;19.338;2023-03-09T09:09:20;27.40;;;16.85;;
40951;SDS011;26682;51.660;19.338;2023-03-09T09:12:03;22.77;;;16.65;;
40951;SDS011;26682;51.660;19.338;2023-03-09T09:14:45;22.77;;;17.35;;
40951;SDS011;26682;51.660;19.338;2023-03-09T09:17:28;23.10;;;17.00;;
40951;SDS011;26682;51.660;19.338;2023-03-09T09:20:10;30.50;;;19.20;;
40951;SDS011;26682;51.660;19.338;2023-03-09T09:22:53;30.48;;;20.00;;
40951;SDS011;26682;51.660;19.338;2023-03-09T09:25:36;28.65;;;19.35;;
40951;SDS011;26682;51.660;19.338;2023-03-09T09:28:18;26.73;;;18.17;;
40951;SDS011;26682;51.660;19.338;2023-03-09T09:31:02;25.50;;;17.95;;
40951;SDS011;26682;51.660;19.338;2023-03-09T09:33:49;25.58;;;18.17;;
40951;SDS011;26682;51.660;19.338;2023-03-09T09:36:31;31.15;;;20.67;;
40951;SDS011;26682;51.660;19.338;2023-03-09T09:39:16;19.42;;;15.80;;
40951;SDS011;26682;51.660;19.338;2023-03-09T09:42:00;24.40;;;18.13;;
40951;SDS011;26682;51.660;19.338;2023-03-09T09:44:54;24.60;;;17.83;;
40951;SDS011;26682;51.660;19.338;2023-03-09T09:47:38;25.75;;;16.30;;
40951;SDS011;26682;51.660;19.338;2023-03-09T09:50:21;25.35;;;16.67;;
40951;SDS011;26682;51.660;19.338;2023-03-09T09:53:16;23.38;;;16.80;;
40951;SDS011;26682;51.660;19.338;2023-03-09T09:56:09;29.38;;;19.58;;
40951;SDS011;26682;51.660;19.338;2023-03-09T09:58:58;21.83;;;15.30;;
40951;SDS011;26682;51.660;19.338;2023-03-09T10:01:51;26.65;;;18.83;;
40951;SDS011;26682;51.660;19.338;2023-03-09T10:04:47;27.90;;;18.65;;
40951;SDS011;26682;51.660;19.338;2023-03-09T10:07:35;25.92;;;18.25;;
40951;SDS011;26682;51.660;19.338;2023-03-09T10:10:23;22.35;;;17.42;;
40951;SDS011;26682;51.660;19.338;2023-03-09T10:13:10;21.20;;;14.90;;
40951;SDS011;26682;51.660;19.338;2023-03-09T10:16:01;25.90;;;17.58;;
40951;SDS011;26682;51.660;19.338;2023-03-09T10:18:52;26.75;;;18.05;;
40951;SDS011;26682;51.660;19.338;2023-03-09T10:21:48;22.38;;;16.00;;
40951;SDS011;26682;51.660;19.338;2023-03-09T10:24:39;23.73;;;15.35;;
40951;SDS011;26682;51.660;19.338;2023-03-09T10:27:46;19.92;;;14.93;;
40951;SDS011;26682;51.660;19.338;2023-03-09T10:33:43;17.00;;;13.20;;
40951;SDS011;26682;51.660;19.338;2023-03-09T10:36:29;25.42;;;17.27;;
40951;SDS011;26682;51.660;19.338;2023-03-09T10:39:15;27.48;;;18.52;;
40951;SDS011;26682;51.660;19.338;2023-03-09T10:41:58;26.83;;;19.02;;
40951;SDS011;26682;51.660;19.338;2023-03-09T10:44:59;23.55;;;17.38;;
40951;SDS011;26682;51.660;19.338;2023-03-09T10:47:51;24.75;;;17.73;;
40951;SDS011;26682;51.660;19.338;2023-03-09T10:50:39;26.98;;;18.08;;
40951;SDS011;26682;51.660;19.338;2023-03-09T10:53:39;24.10;;;17.02;;
40951;SDS011;26682;51.660;19.338;2023-03-09T10:56:41;23.20;;;16.73;;
40951;SDS011;26682;51.660;19.338;2023-03-09T10:59:25;24.52;;;18.98;;
40951;SDS011;26682;51.660;19.338;2023-03-09T11:02:22;28.40;;;18.90;;
40951;SDS011;26682;51.660;19.338;2023-03-09T11:05:20;24.30;;;18.00;;
40951;SDS011;26682;51.660;19.338;2023-03-09T11:08:04;30.05;;;20.35;;
40951;SDS011;26682;51.660;19.338;2023-03-09T11:10:59;28.67;;;20.00;;
40951;SDS011;26682;51.660;19.338;2023-03-09T11:13:44;26.35;;;19.17;;
40951;SDS011;26682;51.660;19.338;2023-03-09T11:16:31;29.98;;;20.45;;
40951;SDS011;26682;51.660;19.338;2023-03-09T11:19:19;27.55;;;17.88;;
40951;SDS011;26682;51.660;19.338;2023-03-09T11:22:05;25.92;;;17.73;;
40951;SDS011;26682;51.660;19.338;2023-03-09T11:24:52;27.35;;;19.15;;
40951;SDS011;26682;51.660;19.338;2023-03-09T11:27:35;25.52;;;19.65;;
40951;SDS011;26682;51.660;19.338;2023-03-09T11:30:20;21.07;;;16.57;;
40951;SDS011;26682;51.660;19.338;2023-03-09T11:33:17;22.53;;;15.77;;
40951;SDS011;26682;51.660;19.338;2023-03-09T11:36:02;26.60;;;17.92;;
40951;SDS011;26682;51.660;19.338;2023-03-09T11:38:46;22.75;;;17.42;;
40951;SDS011;26682;51.660;19.338;2023-03-09T11:41:30;24.73;;;19.23;;
40951;SDS011;26682;51.660;19.338;2023-03-09T11:44:19;29.60;;;20.77;;
40951;SDS011;26682;51.660;19.338;2023-03-09T11:47:05;25.98;;;19.23;;
40951;SDS011;26682;51.660;19.338;2023-03-09T11:50:02;25.38;;;17.98;;
40951;SDS011;26682;51.660;19.338;2023-03-09T11:53:01;23.77;;;16.83;;
40951;SDS011;26682;51.660;19.338;2023-03-09T11:55:48;31.20;;;20.50;;
40951;SDS011;26682;51.660;19.338;2023-03-09T11:58:35;32.60;;;21.10;;
40951;SDS011;26682;51.660;19.338;2023-03-09T12:01:42;30.50;;;19.60;;
40951;SDS011;26682;51.660;19.338;2023-03-09T12:04:30;39.53;;;25.25;;
40951;SDS011;26682;51.660;19.338;2023-03-09T12:07:25;45.35;;;28.23;;
40951;SDS011;26682;51.660;19.338;2023-03-09T12:10:16;34.78;;;22.33;;
40951;SDS011;26682;51.660;19.338;2023-03-09T12:16:02;25.08;;;17.38;;
40951;SDS011;26682;51.660;19.338;2023-03-09T12:24:43;24.52;;;18.40;;
40951;SDS011;26682;51.660;19.338;2023-03-09T12:27:34;30.05;;;20.05;;
40951;SDS011;26682;51.660;19.338;2023-03-09T12:36:28;43.87;;;25.93;;
40951;SDS011;26682;51.660;19.338;2023-03-09T12:47:35;28.92;;;19.20;;
40951;SDS011;26682;51.660;19.338;2023-03-09T12:56:00;32.83;;;21.50;;
40951;SDS011;26682;51.660;19.338;2023-03-09T12:58:46;24.35;;;17.73;;
40951;SDS011;26682;51.660;19.338;2023-03-09T13:01:34;27.42;;;19.25;;
40951;SDS011;26682;51.660;19.338;2023-03-09T13:04:18;27.98;;;19.17;;
40951;SDS011;26682;51.660;19.338;2023-03-09T13:07:09;38.53;;;24.77;;
40951;SDS011;26682;51.660;19.338;2023-03-09T13:10:00;33.88;;;23.23;;
40951;SDS011;26682;51.660;19.338;2023-03-09T13:12:46;32.03;;;23.90;;
40951;SDS011;26682;51.660;19.338;2023-03-09T13:15:34;35.55;;;23.27;;
40951;SDS011;26682;51.660;19.338;2023-03-09T13:18:21;26.08;;;17.88;;
40951;SDS011;26682;51.660;19.338;2023-03-09T13:24:41;22.05;;;17.65;;
40951;SDS011;26682;51.660;19.338;2023-03-09T13:27:24;25.33;;;19.15;;
40951;SDS011;26682;51.660;19.338;2023-03-09T13:30:15;23.20;;;16.90;;
40951;SDS011;26682;51.660;19.338;2023-03-09T13:33:06;22.10;;;16.75;;
40951;SDS011;26682;51.660;19.338;2023-03-09T13:36:07;25.35;;;18.35;;
40951;SDS011;26682;51.660;19.338;2023-03-09T13:38:57;32.00;;;21.75;;
40951;SDS011;26682;51.660;19.338;2023-03-09T13:41:47;34.80;;;21.88;;
40951;SDS011;26682;51.660;19.338;2023-03-09T13:44:31;32.70;;;22.67;;
40951;SDS011;26682;51.660;19.338;2023-03-09T13:47:50;35.70;;;23.75;;
40951;SDS011;26682;51.660;19.338;2023-03-09T13:50:24;31.02;;;22.42;;
40951;SDS011;26682;51.660;19.338;2023-03-09T13:55:59;33.70;;;21.85;;
40951;SDS011;26682;51.660;19.338;2023-03-09T13:58:48;30.92;;;19.55;;
40951;SDS011;26682;51.660;19.338;2023-03-09T14:01:32;33.20;;;20.58;;
40951;SDS011;26682;51.660;19.338;2023-03-09T14:04:15;35.22;;;23.20;;
40951;SDS011;26682;51.660;19.338;2023-03-09T14:06:59;37.28;;;24.00;;
40951;SDS011;26682;51.660;19.338;2023-03-09T14:10:04;32.75;;;20.98;;
40951;SDS011;26682;51.660;19.338;2023-03-09T14:12:59;32.15;;;22.35;;
40951;SDS011;26682;51.660;19.338;2023-03-09T14:18:48;37.80;;;25.42;;
40951;SDS011;26682;51.660;19.338;2023-03-09T14:21:34;29.30;;;20.33;;
40951;SDS011;26682;51.660;19.338;2023-03-09T14:27:37;36.57;;;23.83;;
40951;SDS011;26682;51.660;19.338;2023-03-09T14:36:17;28.30;;;19.67;;
40951;SDS011;26682;51.660;19.338;2023-03-09T14:39:02;28.77;;;21.33;;
40951;SDS011;26682;51.660;19.338;2023-03-09T14:47:55;47.22;;;31.38;;
40951;SDS011;26682;51.660;19.338;2023-03-09T14:50:40;34.55;;;23.13;;
40951;SDS011;26682;51.660;19.338;2023-03-09T14:53:22;39.53;;;27.05;;
40951;SDS011;26682;51.660;19.338;2023-03-09T14:56:05;40.40;;;25.95;;
40951;SDS011;26682;51.660;19.338;2023-03-09T14:58:47;40.67;;;29.27;;
40951;SDS011;26682;51.660;19.338;2023-03-09T15:01:30;41.38;;;25.23;;
40951;SDS011;26682;51.660;19.338;2023-03-09T15:04:39;24.60;;;16.38;;
40951;SDS011;26682;51.660;19.338;2023-03-09T15:07:23;23.60;;;16.42;;
40951;SDS011;26682;51.660;19.338;2023-03-09T15:10:06;24.40;;;17.25;;
40951;SDS011;26682;51.660;19.338;2023-03-09T15:12:49;26.77;;;20.27;;
40951;SDS011;26682;51.660;19.338;2023-03-09T15:15:32;28.30;;;19.67;;
40951;SDS011;26682;51.660;19.338;2023-03-09T15:18:15;30.08;;;21.73;;
40951;SDS011;26682;51.660;19.338;2023-03-09T15:20:57;34.40;;;21.42;;
40951;SDS011;26682;51.660;19.338;2023-03-09T15:23:40;33.70;;;22.20;;
40951;SDS011;26682;51.660;19.338;2023-03-09T15:26:23;22.80;;;15.43;;
40951;SDS011;26682;51.660;19.338;2023-03-09T15:29:06;31.85;;;19.48;;
40951;SDS011;26682;51.660;19.338;2023-03-09T15:31:49;26.35;;;15.23;;
40951;SDS011;26682;51.660;19.338;2023-03-09T15:34:39;27.13;;;17.83;;
40951;SDS011;26682;51.660;19.338;2023-03-09T15:37:22;25.27;;;17.15;;
40951;SDS011;26682;51.660;19.338;2023-03-09T15:40:06;33.83;;;20.27;;
40951;SDS011;26682;51.660;19.338;2023-03-09T15:42:49;26.85;;;18.95;;
40951;SDS011;26682;51.660;19.338;2023-03-09T15:45:32;34.60;;;24.50;;
40951;SDS011;26682;51.660;19.338;2023-03-09T15:48:15;33.67;;;21.95;;
40951;SDS011;26682;51.660;19.338;2023-03-09T15:50:58;36.63;;;24.17;;
40951;SDS011;26682;51.660;19.338;2023-03-09T15:53:40;34.13;;;22.27;;
40951;SDS011;26682;51.660;19.338;2023-03-09T15:56:22;38.00;;;21.80;;
40951;SDS011;26682;51.660;19.338;2023-03-09T15:59:05;34.35;;;21.10;;
40951;SDS011;26682;51.660;19.338;2023-03-09T16:01:48;28.13;;;18.50;;
40951;SDS011;26682;51.660;19.338;2023-03-09T16:04:33;23.30;;;15.38;;
40951;SDS011;26682;51.660;19.338;2023-03-09T16:07:16;23.50;;;15.98;;
40951;SDS011;26682;51.660;19.338;2023-03-09T16:09:58;28.88;;;17.25;;
40951;SDS011;26682;51.660;19.338;2023-03-09T16:12:41;26.77;;;18.60;;
40951;SDS011;26682;51.660;19.338;2023-03-09T16:15:24;27.52;;;17.80;;
40951;SDS011;26682;51.660;19.338;2023-03-09T16:18:07;33.85;;;20.08;;
40951;SDS011;26682;51.660;19.338;2023-03-09T16:20:49;39.25;;;23.98;;
40951;SDS011;26682;51.660;19.338;2023-03-09T16:23:32;42.35;;;24.45;;
40951;SDS011;26682;51.660;19.338;2023-03-09T16:26:18;42.40;;;24.40;;
40951;SDS011;26682;51.660;19.338;2023-03-09T16:29:03;46.22;;;29.13;;
40951;SDS011;26682;51.660;19.338;2023-03-09T16:31:45;48.10;;;28.38;;
40951;SDS011;26682;51.660;19.338;2023-03-09T16:34:31;44.45;;;26.20;;
40951;SDS011;26682;51.660;19.338;2023-03-09T16:37:15;45.88;;;28.70;;
40951;SDS011;26682;51.660;19.338;2023-03-09T16:39:58;61.42;;;35.10;;
40951;SDS011;26682;51.660;19.338;2023-03-09T16:42:40;57.25;;;36.17;;
40951;SDS011;26682;51.660;19.338;2023-03-09T16:45:24;49.70;;;30.90;;
40951;SDS011;26682;51.660;19.338;2023-03-09T16:48:06;42.08;;;26.48;;
40951;SDS011;26682;51.660;19.338;2023-03-09T16:50:49;45.22;;;29.55;;
40951;SDS011;26682;51.660;19.338;2023-03-09T16:53:34;33.10;;;22.50;;
40951;SDS011;26682;51.660;19.338;2023-03-09T16:56:19;30.40;;;20.75;;
40951;SDS011;26682;51.660;19.338;2023-03-09T16:59:03;24.98;;;18.00;;
40951;SDS011;26682;51.660;19.338;2023-03-09T17:01:46;24.75;;;16.05;;